Time;durP1;ratioP1;P1;durP2;ratioP2;P2;SDS_P1;SDS_P2;PMS_P1;PMS_P2;Temp;Humidity;BMP_temperature;BMP_pressure;BME280_temperature;BME280_humidity;BME280_pressure;Samples;Min_cycle;Max_cycle;Signal;HPM_P1;HPM_P2
2023/01/08 00:01:34;;;;;;;4.80;3.40;;;;;;;10.74;76.11;100259.63;5048272;28;20063;-90
2023/01/08 00:04:01;;;;;;;5.43;3.28;;;;;;;10.76;76.02;100252.47;5047329;28;20488;-91
2023/01/08 00:06:26;;;;;;;5.40;2.97;;;;;;;10.80;75.49;100246.09;5031365;28;20036;-91
2023/01/08 00:08:52;;;;;;;5.55;2.85;;;;;;;10.73;75.76;100255.28;5037249;28;20051;-91
2023/01/08 00:11:17;;;;;;;3.35;2.75;;;;;;;10.79;75.55;100259.41;5025691;28;20033;-91
2023/01/08 00:13:42;;;;;;;5.38;3.00;;;;;;;10.77;75.71;100248.91;5020049;28;20056;-91
2023/01/08 00:16:14;;;;;;;4.43;2.92;;;;;;;10.82;75.65;100256.59;5029232;28;20037;-91
2023/01/08 00:18:39;;;;;;;4.13;2.75;;;;;;;10.82;75.07;100256.59;5029252;28;20361;-90
2023/01/08 00:21:05;;;;;;;4.55;2.85;;;;;;;10.86;75.64;100266.94;5050592;28;20039;-92
2023/01/08 00:23:31;;;;;;;4.07;2.95;;;;;;;10.87;75.38;100254.59;5044747;28;20021;-91
2023/01/08 00:26:04;;;;;;;4.78;2.45;;;;;;;10.80;75.62;100255.81;5047402;28;20055;-92
2023/01/08 00:28:29;;;;;;;4.93;2.92;;;;;;;10.87;75.41;100263.38;5029906;28;20033;-91
2023/01/08 00:30:55;;;;;;;3.83;2.72;;;;;;;10.95;75.30;100239.16;5047089;28;20036;-92
2023/01/08 00:33:20;;;;;;;6.07;2.90;;;;;;;10.94;74.82;100237.47;5042705;28;20029;-91
2023/01/08 00:35:46;;;;;;;4.60;2.65;;;;;;;11.02;75.10;100235.28;5032245;28;20024;-91
2023/01/08 00:38:11;;;;;;;3.88;2.70;;;;;;;11.02;74.75;100229.16;5045147;28;20462;-91
2023/01/08 00:40:37;;;;;;;5.07;2.53;;;;;;;11.07;74.62;100221.81;5027661;28;20025;-91
2023/01/08 00:43:03;;;;;;;3.17;2.72;;;;;;;10.99;74.70;100220.41;5044139;28;20466;-91
2023/01/08 00:45:28;;;;;;;4.63;2.90;;;;;;;11.09;74.92;100225.22;5047974;28;20029;-91
2023/01/08 00:47:53;;;;;;;3.83;3.03;;;;;;;11.05;74.80;100218.38;5031036;28;20021;-91
2023/01/08 00:50:18;;;;;;;7.38;3.10;;;;;;;10.73;75.69;100211.19;5030201;28;20589;-91
2023/01/08 00:52:44;;;;;;;5.22;2.60;;;;;;;10.75;76.54;100215.53;5047784;28;20032;-91
2023/01/08 00:55:09;;;;;;;4.00;2.70;;;;;;;10.66;76.53;100204.50;5024895;28;20101;-91
2023/01/08 00:57:36;;;;;;;5.82;2.95;;;;;;;10.63;76.73;100204.66;5031108;28;20017;-91
2023/01/08 01:00:02;;;;;;;4.13;3.10;;;;;;;10.68;76.40;100204.44;5046790;28;20764;-91
2023/01/08 01:02:27;;;;;;;4.53;3.00;;;;;;;10.66;76.29;100204.50;5029929;28;20035;-91
2023/01/08 01:04:53;;;;;;;5.35;2.85;;;;;;;10.63;76.94;100209.94;5047921;28;20119;-91
2023/01/08 01:07:18;;;;;;;7.05;3.17;;;;;;;10.65;76.79;100213.34;5047531;28;20029;-91
2023/01/08 01:09:44;;;;;;;3.35;3.05;;;;;;;10.67;76.97;100211.47;5048290;28;20033;-91
2023/01/08 01:12:09;;;;;;;5.15;3.40;;;;;;;10.69;76.49;100188.47;5048163;28;20017;-91
2023/01/08 01:14:36;;;;;;;7.70;3.10;;;;;;;10.63;76.82;100198.50;5029272;28;20028;-91
2023/01/08 01:17:02;;;;;;;7.75;2.72;;;;;;;10.64;76.91;100187.00;5028080;28;20331;-92
2023/01/08 01:19:27;;;;;;;5.28;2.78;;;;;;;10.67;76.94;100198.25;5048242;28;20025;-91
2023/01/08 01:21:52;;;;;;;6.07;2.88;;;;;;;10.66;76.62;100193.06;5047154;28;20108;-91
2023/01/08 01:24:17;;;;;;;3.90;2.78;;;;;;;10.68;76.87;100183.28;5043871;28;20104;-91
2023/01/08 01:26:43;;;;;;;5.00;2.78;;;;;;;10.91;75.82;100182.97;5029178;28;20079;-91
2023/01/08 01:29:08;;;;;;;8.93;3.30;;;;;;;10.92;75.36;100192.59;5048652;28;20025;-91
2023/01/08 01:31:33;;;;;;;3.53;2.65;;;;;;;10.88;75.75;100180.47;5028567;28;20025;-93
2023/01/08 01:33:59;;;;;;;6.50;2.83;;;;;;;10.94;76.07;100166.91;5047265;28;20063;-91
2023/01/08 01:36:25;;;;;;;3.83;2.28;;;;;;;11.02;75.92;100182.38;5048863;28;20025;-91
2023/01/08 01:38:53;;;;;;;5.47;2.70;;;;;;;10.92;75.90;100183.81;5047074;28;20020;-92
2023/01/08 01:41:21;;;;;;;2.85;2.45;;;;;;;10.98;75.83;100178.19;5023435;28;20493;-91
2023/01/08 01:43:47;;;;;;;5.43;2.83;;;;;;;11.05;75.34;100181.34;5025300;28;20033;-91
2023/01/08 01:46:34;;;;;;;3.85;2.88;;;;;;;11.07;75.61;100179.50;5026745;28;20385;-91
2023/01/08 01:49:05;;;;;;;3.58;2.78;;;;;;;10.93;75.42;100193.44;5010087;28;20049;-91
2023/01/08 01:51:32;;;;;;;4.30;2.60;;;;;;;10.72;77.31;100198.03;5010809;28;20034;-92
2023/01/08 01:53:59;;;;;;;6.80;2.70;;;;;;;10.59;78.82;100199.63;5027890;28;20034;-92
2023/01/08 01:56:26;;;;;;;4.35;2.92;;;;;;;10.50;79.06;100222.06;5025756;28;20079;-91
2023/01/08 01:58:51;;;;;;;4.68;3.00;;;;;;;10.46;80.03;100218.72;5008994;28;20526;-91
2023/01/08 02:01:18;;;;;;;5.93;2.38;;;;;;;10.15;80.27;100210.53;5026472;28;20041;-92
2023/01/08 02:03:43;;;;;;;5.50;2.47;;;;;;;10.11;81.04;100212.47;5029546;28;20063;-92
2023/01/08 02:06:40;;;;;;;6.18;2.00;;;;;;;10.00;80.37;100216.56;5003377;28;20041;-92
2023/01/08 02:09:21;;;;;;;4.68;1.80;;;;;;;10.01;81.40;100208.56;5004993;28;20029;-92
2023/01/08 02:14:47;;;;;;;5.00;1.38;;;;;;;9.76;80.03;100239.72;5028230;28;20053;-92
2023/01/08 02:17:18;;;;;;;3.97;1.40;;;;;;;9.51;80.41;100192.47;5007978;28;20036;-91
2023/01/08 02:19:48;;;;;;;5.50;1.38;;;;;;;9.45;81.05;100190.97;5025871;28;20103;-91
2023/01/08 02:22:33;;;;;;;3.47;1.00;;;;;;;9.41;82.02;100208.72;5025571;28;20603;-92
2023/01/08 02:25:06;;;;;;;2.97;1.38;;;;;;;9.33;81.21;100184.47;5025328;28;20021;-91
2023/01/08 02:27:34;;;;;;;2.72;1.10;;;;;;;9.30;81.16;100184.63;5008517;28;20057;-92
2023/01/08 02:30:02;;;;;;;4.47;1.20;;;;;;;9.22;82.34;100168.28;5025671;28;20033;-92
2023/01/08 02:32:32;;;;;;;2.35;0.77;;;;;;;9.26;81.55;100174.25;5023641;28;20061;-91
2023/01/08 02:34:58;;;;;;;3.92;1.00;;;;;;;9.25;80.69;100181.31;5008949;28;20077;-91
2023/01/08 02:37:23;;;;;;;2.28;0.90;;;;;;;9.35;81.10;100164.16;5025876;28;20037;-91
2023/01/08 02:40:02;;;;;;;4.25;1.00;;;;;;;9.18;81.15;100172.81;5007594;28;20025;-91
2023/01/08 02:42:39;;;;;;;2.20;0.93;;;;;;;9.18;81.32;100175.47;5010610;28;20558;-92
2023/01/08 02:46:01;;;;;;;3.55;0.98;;;;;;;9.19;81.71;100171.91;5021906;28;20061;-91
2023/01/08 02:48:41;;;;;;;4.88;1.40;;;;;;;9.15;81.83;100170.34;4983503;28;20034;-91
2023/01/08 02:51:16;;;;;;;4.18;1.00;;;;;;;9.21;82.12;100177.13;4974547;28;20430;-92
2023/01/08 02:53:49;;;;;;;1.98;1.10;;;;;;;9.07;81.97;100161.06;4992967;28;20045;-92
2023/01/08 02:56:23;;;;;;;2.42;0.90;;;;;;;9.10;82.18;100171.47;5025940;28;20045;-92
2023/01/08 02:58:51;;;;;;;5.07;1.38;;;;;;;9.03;83.01;100168.25;5006293;28;20472;-91
2023/01/08 03:01:19;;;;;;;2.85;1.17;;;;;;;8.91;83.24;100150.34;5005576;28;20029;-91
2023/01/08 03:03:50;;;;;;;1.13;0.70;;;;;;;8.91;83.62;100161.75;5004993;28;20075;-91
2023/01/08 03:06:18;;;;;;;4.25;0.82;;;;;;;8.88;84.07;100168.94;5025641;28;20069;-91
2023/01/08 03:08:46;;;;;;;3.75;0.80;;;;;;;8.89;83.32;100158.31;5009117;28;20021;-90
2023/01/08 03:11:15;;;;;;;2.70;0.80;;;;;;;8.92;83.22;100163.44;5026008;28;20057;-91
2023/01/08 03:13:56;;;;;;;5.10;0.85;;;;;;;9.22;82.71;100156.88;5024317;28;20026;-92
2023/01/08 03:16:40;;;;;;;2.55;1.33;;;;;;;9.16;81.65;100145.66;5011676;28;20071;-92
2023/01/08 03:19:20;;;;;;;6.63;1.00;;;;;;;9.08;82.56;100155.69;5007827;28;20080;-92
2023/01/08 03:21:47;;;;;;;3.45;0.68;;;;;;;9.10;82.11;100158.28;5025570;28;20021;-92
2023/01/08 03:24:17;;;;;;;2.13;0.73;;;;;;;8.96;81.77;100148.38;5027694;28;20112;-90
2023/01/08 03:26:46;;;;;;;5.47;1.75;;;;;;;9.01;81.72;100156.91;5007441;28;20061;-91
2023/01/08 03:29:16;;;;;;;3.15;0.95;;;;;;;9.13;80.94;100169.53;5009624;28;20037;-91
2023/01/08 03:31:43;;;;;;;2.03;1.05;;;;;;;9.09;81.17;100156.56;5028418;28;20025;-91
2023/01/08 03:34:12;;;;;;;4.10;1.13;;;;;;;9.13;80.89;100153.72;5011679;28;20029;-91
2023/01/08 03:36:40;;;;;;;4.93;0.95;;;;;;;9.11;81.24;100154.72;5013324;28;20037;-91
2023/01/08 03:39:21;;;;;;;4.63;1.17;;;;;;;9.14;81.07;100151.97;5009256;28;20029;-91
2023/01/08 03:41:47;;;;;;;3.90;0.60;;;;;;;9.14;81.28;100142.25;5020063;28;20481;-91
2023/01/08 03:44:13;;;;;;;6.07;1.08;;;;;;;9.12;81.01;100144.09;5007904;28;20112;-92
2023/01/08 03:46:43;;;;;;;2.30;0.70;;;;;;;9.13;80.33;100139.69;5009814;28;20569;-91
2023/01/08 03:49:10;;;;;;;4.95;0.80;;;;;;;9.14;80.81;100144.91;5010174;28;20036;-91
2023/01/08 03:51:43;;;;;;;3.97;1.10;;;;;;;9.22;80.04;100139.25;5009327;28;20053;-91
2023/01/08 03:54:12;;;;;;;2.53;0.90;;;;;;;9.27;80.03;100149.59;5009659;28;20613;-91
2023/01/08 03:56:37;;;;;;;4.38;0.90;;;;;;;9.29;80.36;100153.88;5008230;28;20040;-90
2023/01/08 03:59:02;;;;;;;4.05;0.80;;;;;;;9.27;80.15;100134.63;5027722;28;20512;-91
2023/01/08 04:01:28;;;;;;;3.50;1.00;;;;;;;9.27;80.53;100128.50;5024689;28;20033;-91
2023/01/08 04:03:53;;;;;;;5.93;0.90;;;;;;;9.24;80.55;100128.66;5009534;28;20033;-90
2023/01/08 04:06:18;;;;;;;4.90;0.85;;;;;;;9.26;80.46;100127.66;5008805;28;20504;-90
2023/01/08 04:08:46;;;;;;;4.18;1.05;;;;;;;9.19;80.11;100123.59;5027676;28;20080;-91
2023/01/08 04:11:11;;;;;;;5.90;1.30;;;;;;;9.22;79.97;100131.34;5010749;28;20443;-92
2023/01/08 04:13:37;;;;;;;6.93;1.10;;;;;;;9.26;80.17;100129.44;5010677;28;20036;-91
2023/01/08 04:16:02;;;;;;;2.30;1.25;;;;;;;9.25;79.99;100127.72;5011354;28;20037;-90
2023/01/08 04:18:27;;;;;;;5.78;1.30;;;;;;;9.20;80.60;100114.75;5011995;28;20053;-90
2023/01/08 04:20:53;;;;;;;3.35;0.88;;;;;;;9.12;80.51;100107.19;5025261;28;20389;-91
2023/01/08 04:23:18;;;;;;;3.67;1.20;;;;;;;9.08;80.82;100097.69;5027357;28;20112;-92
2023/01/08 04:25:43;;;;;;;6.32;1.63;;;;;;;9.10;80.94;100098.50;5028395;28;20397;-92
2023/01/08 04:28:09;;;;;;;5.53;1.23;;;;;;;9.06;81.38;100109.25;5011542;28;20556;-90
2023/01/08 04:30:34;;;;;;;5.97;1.80;;;;;;;9.15;81.21;100122.03;5011053;28;20030;-91
2023/01/08 04:32:59;;;;;;;5.35;1.67;;;;;;;9.18;81.38;100125.34;5028136;28;20543;-92
2023/01/08 04:35:24;;;;;;;7.18;2.42;;;;;;;9.23;80.75;100113.72;5013458;28;20025;-91
2023/01/08 04:37:50;;;;;;;4.40;1.70;;;;;;;9.25;80.62;100101.34;5009546;28;20036;-91
2023/01/08 04:40:15;;;;;;;4.20;1.90;;;;;;;9.31;80.41;100095.78;5008781;28;20095;-92
2023/01/08 04:42:40;;;;;;;5.25;1.63;;;;;;;9.30;80.42;100092.28;5026126;28;20129;-90
2023/01/08 04:45:07;;;;;;;4.88;2.28;;;;;;;9.35;80.68;100100.00;5028626;28;20564;-92
2023/01/08 04:47:32;;;;;;;3.83;1.70;;;;;;;9.43;80.21;100101.34;5006670;28;20042;-91
2023/01/08 04:49:57;;;;;;;6.95;1.85;;;;;;;9.49;79.58;100088.78;5014073;28;20177;-91
2023/01/08 04:52:23;;;;;;;4.15;1.55;;;;;;;9.23;79.54;100104.03;5005202;28;20060;-91
2023/01/08 04:54:48;;;;;;;5.63;1.95;;;;;;;9.22;80.06;100104.13;5011024;28;20485;-92
2023/01/08 04:57:13;;;;;;;3.53;1.80;;;;;;;9.15;80.52;100104.41;5026224;28;20033;-90
2023/01/08 04:59:39;;;;;;;2.03;1.40;;;;;;;9.18;79.75;100112.16;5009016;28;20025;-91
2023/01/08 05:02:04;;;;;;;2.53;1.33;;;;;;;9.06;80.62;100099.56;5001631;28;20084;-91
2023/01/08 05:04:29;;;;;;;4.97;1.55;;;;;;;9.03;80.08;100117.28;5028424;28;20025;-91
2023/01/08 05:06:55;;;;;;;2.22;1.00;;;;;;;9.12;79.18;100093.16;5002311;28;20504;-91
2023/01/08 05:09:20;;;;;;;4.00;1.70;;;;;;;9.14;79.07;100105.34;5023746;28;20469;-90
2023/01/08 05:11:45;;;;;;;4.82;1.02;;;;;;;9.07;78.67;100098.63;5007583;28;20029;-91
2023/01/08 05:14:11;;;;;;;4.75;0.98;;;;;;;9.15;78.29;100111.47;5005940;28;20044;-91
2023/01/08 05:16:36;;;;;;;2.90;1.00;;;;;;;9.15;77.41;100109.69;5003349;28;20029;-90
2023/01/08 05:19:01;;;;;;;2.97;1.10;;;;;;;9.09;77.50;100109.97;5025220;28;20024;-91
2023/01/08 05:21:27;;;;;;;1.75;0.90;;;;;;;9.16;77.56;100108.75;5006367;28;20025;-92
2023/01/08 05:23:52;;;;;;;3.63;0.80;;;;;;;9.13;77.79;100108.88;5025956;28;20036;-91
2023/01/08 05:26:18;;;;;;;2.00;0.82;;;;;;;9.09;77.35;100114.38;5028589;28;20033;-91
2023/01/08 05:28:44;;;;;;;2.40;0.88;;;;;;;9.14;77.96;100110.63;5026873;28;20041;-91
2023/01/08 05:31:10;;;;;;;1.52;1.00;;;;;;;9.03;78.08;100101.47;5008682;28;20369;-90
2023/01/08 05:33:36;;;;;;;1.90;1.00;;;;;;;9.06;78.25;100096.06;5010522;28;20539;-91
2023/01/08 05:36:04;;;;;;;2.83;0.70;;;;;;;9.14;77.79;100093.94;5028601;28;20029;-91
2023/01/08 05:38:29;;;;;;;4.70;0.98;;;;;;;9.12;77.13;100072.91;5025731;28;20036;-91
2023/01/08 05:40:55;;;;;;;3.08;0.80;;;;;;;9.13;77.21;100077.25;5021827;28;20029;-91
2023/01/08 05:43:20;;;;;;;3.25;1.35;;;;;;;9.15;76.95;100064.00;5008962;28;20061;-91
2023/01/08 05:45:45;;;;;;;2.55;0.80;;;;;;;9.21;76.33;100079.53;5004608;28;20025;-92
2023/01/08 05:48:11;;;;;;;4.07;1.00;;;;;;;9.15;76.32;100080.69;5027245;28;20037;-90
2023/01/08 05:50:36;;;;;;;3.17;1.02;;;;;;;9.11;76.25;100070.34;5028949;28;20049;-91
2023/01/08 05:53:05;;;;;;;2.90;1.15;;;;;;;8.97;76.24;100081.53;5023807;28;20029;-92
2023/01/08 05:55:30;;;;;;;3.90;1.10;;;;;;;8.96;76.27;100079.81;5003511;28;20029;-92
2023/01/08 05:58:00;;;;;;;3.70;1.45;;;;;;;8.91;76.57;100085.31;5023106;28;20426;-91
2023/01/08 06:00:25;;;;;;;2.50;0.90;;;;;;;8.79;76.49;100077.94;5011125;28;20453;-92
2023/01/08 06:02:51;;;;;;;2.53;1.10;;;;;;;8.67;76.41;100084.63;5008596;28;20032;-91
2023/01/08 06:05:16;;;;;;;3.50;0.93;;;;;;;8.63;76.18;100074.28;5019915;28;20037;-91
2023/01/08 06:07:41;;;;;;;2.47;1.10;;;;;;;8.63;75.79;100084.84;5008125;28;20029;-91
2023/01/08 06:10:07;;;;;;;4.22;0.90;;;;;;;8.58;76.16;100087.66;5005157;28;20117;-91
2023/01/08 06:12:32;;;;;;;3.03;0.90;;;;;;;8.58;76.26;100098.22;5024699;28;20052;-91
2023/01/08 06:14:57;;;;;;;2.47;0.88;;;;;;;8.52;76.22;100087.91;5028408;28;20515;-91
2023/01/08 06:17:23;;;;;;;4.35;1.48;;;;;;;8.47;76.58;100107.47;5007124;28;20037;-91
2023/01/08 06:19:48;;;;;;;3.88;1.15;;;;;;;8.41;76.33;100098.06;5007476;28;20025;-91
2023/01/08 06:22:13;;;;;;;1.63;1.10;;;;;;;8.35;77.16;100106.22;5005139;28;20044;-91
2023/01/08 06:24:38;;;;;;;4.18;1.20;;;;;;;8.30;76.38;100101.16;5004489;28;20196;-92
2023/01/08 06:27:04;;;;;;;3.88;0.90;;;;;;;8.28;75.96;100107.38;5027268;28;20033;-91
2023/01/08 06:29:29;;;;;;;6.80;1.42;;;;;;;8.25;75.72;100102.22;5023309;28;20113;-91
2023/01/08 06:31:55;;;;;;;3.42;0.98;;;;;;;8.36;75.62;100116.72;5027409;28;20040;-92
2023/01/08 06:34:20;;;;;;;1.50;0.73;;;;;;;8.33;75.02;100118.56;5025836;28;20033;-91
2023/01/08 06:36:45;;;;;;;5.30;1.02;;;;;;;8.27;74.92;100119.69;5027117;28;20033;-91
2023/01/08 06:39:10;;;;;;;5.45;0.82;;;;;;;8.31;74.44;100123.06;5025433;28;20044;-91
2023/01/08 06:41:39;;;;;;;4.25;1.33;;;;;;;8.29;74.61;100125.75;5010187;28;20034;-91
2023/01/08 06:44:04;;;;;;;5.00;1.00;;;;;;;8.12;74.52;100120.34;5025861;28;20103;-91
2023/01/08 06:46:29;;;;;;;7.15;0.98;;;;;;;8.12;74.73;100128.25;5006127;28;20022;-91
2023/01/08 06:48:54;;;;;;;2.53;0.98;;;;;;;8.09;74.67;100134.47;5007443;28;20034;-92
2023/01/08 06:51:20;;;;;;;8.85;1.15;;;;;;;8.05;74.85;100135.53;5013573;28;20076;-93
2023/01/08 06:53:48;;;;;;;6.00;1.23;;;;;;;7.99;74.84;100125.25;5028599;28;20112;-92
2023/01/08 06:56:13;;;;;;;5.35;1.02;;;;;;;7.96;74.58;100150.84;5012437;28;20026;-89
2023/01/08 06:58:38;;;;;;;6.07;1.08;;;;;;;7.99;74.57;100125.25;5008944;28;20102;-91
2023/01/08 07:01:04;;;;;;;3.28;1.08;;;;;;;8.01;74.40;100140.97;5011073;28;20064;-91
2023/01/08 07:03:30;;;;;;;7.18;1.10;;;;;;;7.91;74.47;100128.19;5012120;28;20068;-91
2023/01/08 07:05:56;;;;;;;6.63;1.33;;;;;;;7.97;74.51;100132.34;5029385;28;20029;-92
2023/01/08 07:08:21;;;;;;;2.70;1.08;;;;;;;8.15;73.87;100121.06;5010266;28;20157;-91
2023/01/08 07:10:49;;;;;;;9.60;2.05;;;;;;;8.13;73.97;100119.41;5028778;28;20626;-91
2023/01/08 07:13:15;;;;;;;6.30;1.60;;;;;;;8.17;73.70;100127.13;5030815;28;20029;-91
2023/01/08 07:15:41;;;;;;;3.88;1.00;;;;;;;8.15;73.73;100133.38;5032344;28;20067;-91
2023/01/08 07:18:08;;;;;;;6.85;1.63;;;;;;;8.17;73.39;100127.13;5012049;28;20043;-92
2023/01/08 07:20:34;;;;;;;7.35;1.27;;;;;;;8.15;74.04;100126.31;5013985;28;20089;-91
2023/01/08 07:23:03;;;;;;;7.25;1.55;;;;;;;8.10;74.66;100120.38;5027416;28;20021;-91
2023/01/08 07:25:29;;;;;;;6.28;1.60;;;;;;;8.04;74.75;100120.66;5031262;28;20552;-91
2023/01/08 07:27:55;;;;;;;5.93;1.13;;;;;;;8.09;74.55;100110.78;5028538;28;20469;-92
2023/01/08 07:30:21;;;;;;;6.70;1.40;;;;;;;8.09;74.30;100113.41;5028313;28;20146;-92
2023/01/08 07:32:46;;;;;;;6.53;1.23;;;;;;;7.98;75.23;100115.66;5009335;28;20022;-91
2023/01/08 07:35:11;;;;;;;5.82;1.33;;;;;;;8.01;74.22;100115.50;5011516;28;20085;-92
2023/01/08 07:37:40;;;;;;;5.63;1.52;;;;;;;7.98;74.66;100118.28;5012982;28;20025;-92
2023/01/08 07:40:07;;;;;;;6.25;1.58;;;;;;;7.89;74.74;100119.50;5012584;28;20598;-92
2023/01/08 07:42:32;;;;;;;6.43;1.30;;;;;;;7.96;74.87;100117.47;5025724;28;20205;-91
2023/01/08 07:44:57;;;;;;;6.50;1.23;;;;;;;7.87;74.70;100125.75;5007890;28;20541;-90
2023/01/08 07:47:23;;;;;;;6.97;1.40;;;;;;;7.87;75.00;100123.09;5013038;28;20033;-92
2023/01/08 07:49:48;;;;;;;5.15;1.08;;;;;;;7.62;75.55;100110.94;5011698;28;20076;-91
2023/01/08 07:52:13;;;;;;;7.15;1.40;;;;;;;7.53;76.36;100113.09;5012509;28;20120;-91
2023/01/08 07:54:39;;;;;;;5.68;1.38;;;;;;;7.46;76.60;100109.84;5009515;28;20060;-92
2023/01/08 07:57:04;;;;;;;7.53;1.50;;;;;;;7.41;76.68;100117.91;5024837;28;20034;-91
2023/01/08 07:59:29;;;;;;;7.53;1.67;;;;;;;7.48;76.96;100122.94;5029289;28;20108;-91
2023/01/08 08:01:54;;;;;;;4.68;0.90;;;;;;;7.61;76.51;100124.16;5026512;28;20033;-92
2023/01/08 08:04:20;;;;;;;6.78;0.98;;;;;;;7.80;75.90;100116.41;5027849;28;20400;-92
2023/01/08 08:06:45;;;;;;;4.07;1.08;;;;;;;7.76;75.96;100120.91;5012041;28;20088;-90
2023/01/08 08:09:10;;;;;;;4.25;1.40;;;;;;;7.81;76.27;100112.84;5027634;28;20029;-91
2023/01/08 08:11:37;;;;;;;3.38;0.93;;;;;;;7.91;75.68;100120.28;5030238;28;20437;-91
2023/01/08 08:14:02;;;;;;;5.82;1.15;;;;;;;7.76;75.96;100099.03;5030574;28;20029;-91
2023/01/08 08:16:27;;;;;;;4.45;1.00;;;;;;;7.72;76.44;100087.75;5028858;28;20236;-91
2023/01/08 08:18:53;;;;;;;5.50;1.10;;;;;;;7.78;76.71;100082.22;5027568;28;20084;-91
2023/01/08 08:21:18;;;;;;;6.07;1.40;;;;;;;7.86;77.01;100084.56;5012481;28;20028;-90
2023/01/08 08:23:43;;;;;;;5.28;1.20;;;;;;;7.91;76.46;100077.31;5007134;28;20385;-92
2023/01/08 08:26:09;;;;;;;2.85;0.90;;;;;;;7.86;76.90;100069.63;5029031;28;20059;-91
2023/01/08 08:28:34;;;;;;;5.00;1.13;;;;;;;7.93;77.07;100067.63;5028353;28;20083;-92
2023/01/08 08:30:59;;;;;;;6.40;1.02;;;;;;;8.06;76.64;100067.94;5027156;28;20112;-92
2023/01/08 08:33:24;;;;;;;7.68;1.27;;;;;;;8.09;76.98;100073.94;5008030;28;20036;-91
2023/01/08 08:35:50;;;;;;;4.13;1.23;;;;;;;8.14;76.22;100074.59;5012474;28;20064;-91
2023/01/08 08:38:16;;;;;;;9.48;1.20;;;;;;;8.22;76.23;100078.69;5028222;28;20444;-91
2023/01/08 08:40:42;;;;;;;5.35;1.10;;;;;;;8.19;76.12;100072.63;5026378;28;20519;-91
2023/01/08 08:43:08;;;;;;;5.90;1.40;;;;;;;8.46;75.18;100069.75;5005711;28;20173;-92
2023/01/08 08:45:34;;;;;;;2.63;0.88;;;;;;;8.43;75.70;100068.09;5026855;28;20037;-91
2023/01/08 08:47:59;;;;;;;6.45;1.20;;;;;;;8.55;75.19;100079.88;5008181;28;20029;-91
2023/01/08 08:50:25;;;;;;;5.28;1.30;;;;;;;8.68;74.10;100073.16;5006432;28;20052;-91
2023/01/08 08:52:57;;;;;;;3.47;0.90;;;;;;;8.99;73.58;100070.91;5028978;28;20515;-91
2023/01/08 08:55:22;;;;;;;4.10;1.20;;;;;;;9.19;73.40;100065.56;5012969;28;20542;-91
2023/01/08 08:57:48;;;;;;;4.65;1.13;;;;;;;9.19;72.46;100050.59;5030003;28;20037;-90
2023/01/08 09:00:14;;;;;;;4.38;1.20;;;;;;;8.92;73.77;100072.97;5012401;28;20026;-91
2023/01/08 09:02:39;;;;;;;4.50;0.80;;;;;;;8.71;74.40;100053.69;5024242;28;20037;-92
2023/01/08 09:05:05;;;;;;;6.65;1.80;;;;;;;8.48;75.16;100057.34;5028206;28;20487;-91
2023/01/08 09:07:31;;;;;;;6.25;1.38;;;;;;;8.33;75.90;100050.09;5028779;28;20033;-91
2023/01/08 09:09:56;;;;;;;4.75;1.13;;;;;;;8.28;76.04;100050.31;5018409;28;20022;-91
2023/01/08 09:12:21;;;;;;;4.10;1.02;;;;;;;8.17;76.37;100047.28;5010963;28;20037;-91
2023/01/08 09:14:49;;;;;;;7.38;0.95;;;;;;;8.10;77.17;100038.78;5011156;28;20033;-91
2023/01/08 09:17:14;;;;;;;5.50;1.17;;;;;;;8.07;76.94;100049.47;5011520;28;20115;-91
2023/01/08 09:19:39;;;;;;;3.67;0.95;;;;;;;8.18;76.89;100060.38;5025585;28;20068;-91
2023/01/08 09:22:05;;;;;;;3.58;1.13;;;;;;;8.15;76.70;100057.00;5010333;28;20197;-92
2023/01/08 09:24:31;;;;;;;7.68;1.95;;;;;;;8.13;77.07;100056.22;5030149;28;20100;-91
2023/01/08 09:26:57;;;;;;;6.05;1.60;;;;;;;8.14;77.26;100064.06;5026811;28;20017;-91
2023/01/08 09:29:22;;;;;;;8.25;1.75;;;;;;;8.20;77.24;100055.03;5015700;28;20037;-91
2023/01/08 09:31:48;;;;;;;5.82;1.40;;;;;;;8.21;76.92;100053.25;5026759;28;20083;-91
2023/01/08 09:34:13;;;;;;;5.80;1.65;;;;;;;8.23;76.98;100046.16;5006278;28;20505;-91
2023/01/08 09:36:38;;;;;;;6.22;1.13;;;;;;;8.26;76.90;100046.03;5011012;28;20033;-90
2023/01/08 09:39:03;;;;;;;8.23;1.20;;;;;;;8.19;77.61;100035.75;5024371;28;20642;-91
2023/01/08 09:41:32;;;;;;;4.82;1.08;;;;;;;8.29;77.66;100045.88;5010803;28;20025;-91
2023/01/08 09:43:59;;;;;;;9.70;1.42;;;;;;;8.23;78.18;100046.16;5008791;28;20469;-91
2023/01/08 09:46:27;;;;;;;5.25;1.58;;;;;;;8.15;77.84;100033.31;5028874;28;20025;-91
2023/01/08 09:48:56;;;;;;;6.88;1.70;;;;;;;8.26;77.77;100033.72;5028155;28;20029;-91
2023/01/08 09:51:32;;;;;;;6.57;1.20;;;;;;;8.30;77.87;100031.78;5026791;28;20037;-91
2023/01/08 09:53:57;;;;;;;7.68;1.80;;;;;;;8.32;78.02;100041.34;5027195;28;20025;-91
2023/01/08 09:56:23;;;;;;;5.97;1.60;;;;;;;8.39;78.23;100036.69;5027579;28;20370;-90
2023/01/08 09:58:51;;;;;;;4.72;2.15;;;;;;;8.46;77.67;100034.66;5009669;28;20468;-91
2023/01/08 10:01:20;;;;;;;4.70;1.65;;;;;;;8.48;78.14;100044.19;5017593;28;20029;-91
2023/01/08 10:03:50;;;;;;;5.78;1.63;;;;;;;8.58;78.13;100042.00;5021272;28;20021;-89
2023/01/08 10:06:16;;;;;;;5.18;1.65;;;;;;;8.60;77.69;100048.91;5016688;28;20496;-90
2023/01/08 10:08:41;;;;;;;3.05;1.38;;;;;;;8.65;77.24;100031.13;5009039;28;20112;-91
2023/01/08 10:11:08;;;;;;;8.75;1.77;;;;;;;8.51;78.15;100028.25;5004256;28;20457;-91
2023/01/08 10:13:36;;;;;;;6.20;1.90;;;;;;;8.57;78.08;100019.22;5027742;28;20036;-91
2023/01/08 10:16:07;;;;;;;6.45;1.13;;;;;;;8.59;78.15;100023.50;5026061;28;20034;-90
2023/01/08 10:18:33;;;;;;;5.45;1.60;;;;;;;8.71;77.81;100018.59;5027598;28;20432;-89
2023/01/08 10:20:59;;;;;;;6.88;1.38;;;;;;;8.70;77.91;100020.38;5011938;28;20030;-91
2023/01/08 10:23:24;;;;;;;5.70;0.95;;;;;;;8.71;77.57;100000.16;5029540;28;20037;-91
2023/01/08 10:26:01;;;;;;;10.63;1.67;;;;;;;8.84;77.32;100010.06;5031517;28;20017;-91
2023/01/08 10:28:35;;;;;;;6.13;1.35;;;;;;;8.86;77.01;100017.88;5009249;28;20053;-91
2023/01/08 10:31:15;;;;;;;4.75;1.27;;;;;;;9.01;76.92;100008.44;5006317;28;20018;-91
2023/01/08 10:33:43;;;;;;;7.35;1.30;;;;;;;9.03;76.47;100011.84;5025025;28;20033;-90
2023/01/08 10:36:12;;;;;;;4.95;1.25;;;;;;;9.04;76.17;100000.34;5013361;28;20029;-91
2023/01/08 10:38:48;;;;;;;2.90;1.10;;;;;;;9.18;76.06;99998.75;5027686;28;20029;-91
2023/01/08 10:41:14;;;;;;;2.65;1.00;;;;;;;9.32;75.12;99998.09;5015210;28;20022;-91
2023/01/08 10:43:53;;;;;;;2.92;1.08;;;;;;;9.47;74.79;99991.25;5007831;28;20053;-91
2023/01/08 10:46:23;;;;;;;4.43;1.20;;;;;;;9.59;74.45;99993.25;5024433;28;20416;-90
2023/01/08 10:48:58;;;;;;;5.40;1.15;;;;;;;9.33;74.08;99970.81;5030855;28;20021;-91
2023/01/08 10:51:26;;;;;;;2.72;0.82;;;;;;;10.18;73.39;99976.16;5025040;28;20112;-91
2023/01/08 10:53:53;;;;;;;3.00;0.88;;;;;;;11.89;65.71;99960.47;5027118;28;20030;-91
2023/01/08 10:56:26;;;;;;;3.10;1.08;;;;;;;14.05;59.01;99962.56;5006983;28;20072;-90
2023/01/08 10:58:52;;;;;;;0.80;0.70;;;;;;;15.84;55.79;99962.09;5029684;28;20036;-91
2023/01/08 11:01:22;;;;;;;2.33;0.60;;;;;;;16.35;51.21;99957.25;5029539;28;20092;-91
2023/01/08 11:03:54;;;;;;;1.83;0.90;;;;;;;15.85;51.25;99955.81;5007216;28;20076;-91
2023/01/08 11:06:23;;;;;;;1.23;0.50;;;;;;;16.17;51.99;99953.34;5012443;28;20433;-90
2023/01/08 11:08:57;;;;;;;1.33;0.40;;;;;;;16.44;49.47;99955.66;5027432;28;20392;-91
2023/01/08 11:11:23;;;;;;;1.13;0.45;;;;;;;16.45;50.64;99946.69;5009348;28;20117;-91
2023/01/08 11:13:59;;;;;;;1.20;0.40;;;;;;;17.53;48.70;99940.56;5007748;28;20124;-90
2023/01/08 11:16:36;;;;;;;1.70;0.55;;;;;;;16.72;48.38;99939.19;5027057;28;20025;-92
2023/01/08 11:19:04;;;;;;;0.85;0.40;;;;;;;17.44;48.81;99937.78;5025430;28;20088;-90
2023/01/08 11:21:31;;;;;;;0.45;0.45;;;;;;;17.82;45.04;99939.97;5025637;28;20029;-90
2023/01/08 11:24:19;;;;;;;1.10;0.32;;;;;;;17.72;47.28;99936.31;5013592;28;20493;-90
2023/01/08 11:26:49;;;;;;;3.03;0.57;;;;;;;18.81;45.63;99922.47;5025656;28;20033;-90
2023/01/08 11:29:21;;;;;;;0.85;0.45;;;;;;;19.73;42.70;99909.59;5027718;28;20040;-90
2023/01/08 11:32:25;;;;;;;0.93;0.40;;;;;;;18.68;42.22;99917.31;5023834;28;20029;-90
2023/01/08 11:35:08;;;;;;;0.73;0.40;;;;;;;18.03;44.93;99915.88;4987359;28;20511;-90
2023/01/08 11:37:40;;;;;;;0.63;0.40;;;;;;;18.41;43.87;99904.53;5025164;28;20037;-91